Time;durP1;ratioP1;P1;durP2;ratioP2;P2;SDS_P1;SDS_P2;PMS_P1;PMS_P2;Temp;Humidity;BMP_temperature;BMP_pressure;BME280_temperature;BME280_humidity;BME280_pressure;Samples;Min_cycle;Max_cycle;Signal;HPM_P1;HPM_P2
2023/12/06 00:04:16;;;;;;;185.93;87.37;;;;;;;;;;10476589;28;20028;-81
2023/12/06 00:09:17;;;;;;;188.33;87.73;;;;;;;;;;10470566;28;20111;-81
2023/12/06 00:14:18;;;;;;;179.63;85.30;;;;;;;;;;10483466;28;20064;-83
2023/12/06 00:19:19;;;;;;;176.07;83.00;;;;;;;;;;10471908;28;20511;-82
2023/12/06 00:24:20;;;;;;;179.80;91.00;;;;;;;;;;10480388;28;20124;-82
2023/12/06 00:29:21;;;;;;;173.90;87.77;;;;;;;;;;10474824;28;20080;-82
2023/12/06 00:34:22;;;;;;;181.47;87.30;;;;;;;;;;10480357;28;20023;-81
2023/12/06 00:39:23;;;;;;;173.10;83.53;;;;;;;;;;10464244;28;20821;-81
2023/12/06 00:44:24;;;;;;;181.07;85.93;;;;;;;;;;10477482;28;20663;-82
2023/12/06 00:49:25;;;;;;;176.17;85.50;;;;;;;;;;10476625;28;20032;-82
2023/12/06 00:54:26;;;;;;;178.10;89.27;;;;;;;;;;10471957;28;20043;-82
2023/12/06 00:59:27;;;;;;;176.50;82.10;;;;;;;;;;10480531;28;20064;-81
2023/12/06 01:04:28;;;;;;;181.23;85.47;;;;;;;;;;10486174;28;20119;-83
2023/12/06 01:09:29;;;;;;;177.13;85.57;;;;;;;;;;10475752;28;20437;-83
2023/12/06 01:14:30;;;;;;;190.43;86.57;;;;;;;;;;10482914;28;20128;-84
2023/12/06 01:19:32;;;;;;;190.67;87.70;;;;;;;;;;10472400;28;20029;-81
2023/12/06 01:24:33;;;;;;;188.73;89.10;;;;;;;;;;10476561;28;20037;-82
2023/12/06 01:29:34;;;;;;;197.97;89.67;;;;;;;;;;10430692;28;20136;-81
2023/12/06 01:34:35;;;;;;;181.07;84.27;;;;;;;;;;10435407;28;20124;-81
2023/12/06 01:39:43;;;;;;;183.77;86.03;;;;;;;;;;10415732;28;20030;-82
2023/12/06 01:44:44;;;;;;;168.63;81.77;;;;;;;;;;10435049;28;20033;-83
2023/12/06 01:49:46;;;;;;;164.77;79.97;;;;;;;;;;10432446;28;20097;-82
2023/12/06 01:54:47;;;;;;;159.03;75.90;;;;;;;;;;10429974;28;20127;-82
2023/12/06 01:59:48;;;;;;;161.87;77.90;;;;;;;;;;10434949;28;20116;-82
2023/12/06 02:04:49;;;;;;;156.07;73.77;;;;;;;;;;10424591;28;20602;-84
2023/12/06 02:09:50;;;;;;;168.83;82.27;;;;;;;;;;10429903;28;20040;-82
2023/12/06 02:14:51;;;;;;;168.57;78.80;;;;;;;;;;10440327;28;20040;-82
2023/12/06 02:19:53;;;;;;;167.90;80.43;;;;;;;;;;10435209;28;20471;-82
2023/12/06 02:24:57;;;;;;;162.50;74.10;;;;;;;;;;10441578;28;20114;-81
2023/12/06 02:29:58;;;;;;;165.70;81.07;;;;;;;;;;10443363;28;20032;-82
2023/12/06 02:35:01;;;;;;;155.50;75.37;;;;;;;;;;10446489;28;20037;-82
2023/12/06 02:40:04;;;;;;;146.60;69.17;;;;;;;;;;10446722;28;20037;-81
2023/12/06 02:45:05;;;;;;;151.60;73.73;;;;;;;;;;10451491;28;20043;-81
2023/12/06 02:50:06;;;;;;;148.30;72.87;;;;;;;;;;10445960;28;20104;-82
2023/12/06 02:55:07;;;;;;;148.87;70.17;;;;;;;;;;10449793;28;20097;-82
2023/12/06 03:00:10;;;;;;;137.37;66.47;;;;;;;;;;10427889;28;20041;-82
2023/12/06 03:05:11;;;;;;;146.00;71.40;;;;;;;;;;10447713;28;20400;-82
2023/12/06 03:10:12;;;;;;;152.23;69.33;;;;;;;;;;10450096;28;20041;-81
2023/12/06 03:15:13;;;;;;;142.53;71.07;;;;;;;;;;10447915;28;20063;-82
2023/12/06 03:20:15;;;;;;;140.57;66.60;;;;;;;;;;10447808;28;20041;-83
2023/12/06 03:25:16;;;;;;;139.13;67.27;;;;;;;;;;10448722;28;20140;-82
2023/12/06 03:30:17;;;;;;;144.00;66.43;;;;;;;;;;10469653;28;20074;-82
2023/12/06 03:35:18;;;;;;;145.37;69.53;;;;;;;;;;10486220;28;20931;-81
2023/12/06 03:40:20;;;;;;;140.33;66.83;;;;;;;;;;10488127;28;20053;-83
2023/12/06 03:45:21;;;;;;;145.60;68.90;;;;;;;;;;10480528;28;20024;-82
2023/12/06 03:50:22;;;;;;;154.37;70.80;;;;;;;;;;10471573;28;20467;-82
2023/12/06 03:55:24;;;;;;;175.53;81.47;;;;;;;;;;10482346;28;20139;-83
2023/12/06 04:00:25;;;;;;;167.67;78.07;;;;;;;;;;10472233;28;20130;-84
2023/12/06 04:05:26;;;;;;;146.90;70.20;;;;;;;;;;10453656;28;20028;-83
2023/12/06 04:10:27;;;;;;;137.23;62.70;;;;;;;;;;10466784;28;20025;-84
2023/12/06 04:15:29;;;;;;;157.07;76.47;;;;;;;;;;10463843;28;20032;-84
2023/12/06 04:20:30;;;;;;;156.27;71.33;;;;;;;;;;10468378;28;20759;-82
2023/12/06 04:25:31;;;;;;;140.20;64.50;;;;;;;;;;10471842;28;20065;-83
2023/12/06 04:30:32;;;;;;;151.67;70.83;;;;;;;;;;10470310;28;20021;-83
2023/12/06 04:35:33;;;;;;;141.93;70.77;;;;;;;;;;10481053;28;20040;-83
2023/12/06 04:40:41;;;;;;;136.03;65.03;;;;;;;;;;10467585;28;20112;-84
2023/12/06 04:45:42;;;;;;;140.17;69.33;;;;;;;;;;10473614;28;20040;-84
2023/12/06 04:50:43;;;;;;;141.57;70.40;;;;;;;;;;10470522;28;21522;-82
2023/12/06 04:55:45;;;;;;;137.13;64.13;;;;;;;;;;10486334;28;20170;-83
2023/12/06 05:00:46;;;;;;;141.63;68.63;;;;;;;;;;10474488;28;20091;-81
2023/12/06 05:05:47;;;;;;;127.67;61.97;;;;;;;;;;10492381;28;20314;-82
2023/12/06 05:10:55;;;;;;;135.43;62.97;;;;;;;;;;10474310;28;20111;-80
2023/12/06 05:15:56;;;;;;;135.03;64.13;;;;;;;;;;10493436;28;20029;-81
2023/12/06 05:20:57;;;;;;;133.60;64.87;;;;;;;;;;10496678;28;20041;-81
2023/12/06 05:25:58;;;;;;;129.47;61.60;;;;;;;;;;10490476;28;20147;-83
2023/12/06 05:30:59;;;;;;;140.17;65.43;;;;;;;;;;10490461;28;20084;-81
2023/12/06 05:36:00;;;;;;;145.93;71.37;;;;;;;;;;10491290;28;20480;-81
2023/12/06 05:41:01;;;;;;;148.70;71.13;;;;;;;;;;10491207;28;20050;-81
2023/12/06 05:46:02;;;;;;;141.67;69.67;;;;;;;;;;10490798;28;20025;-81
2023/12/06 05:51:10;;;;;;;139.07;66.33;;;;;;;;;;10490704;28;20448;-81
2023/12/06 05:56:12;;;;;;;152.50;72.27;;;;;;;;;;10491449;28;20199;-81
2023/12/06 06:01:13;;;;;;;144.33;70.73;;;;;;;;;;10490479;28;20043;-81
2023/12/06 06:06:14;;;;;;;150.23;74.47;;;;;;;;;;10491136;28;20032;-81
2023/12/06 06:11:15;;;;;;;142.07;72.03;;;;;;;;;;10491146;28;20020;-81
2023/12/06 06:16:19;;;;;;;151.30;72.90;;;;;;;;;;10489852;28;20056;-83
2023/12/06 06:21:20;;;;;;;146.40;74.97;;;;;;;;;;10490292;28;20080;-80
2023/12/06 06:26:21;;;;;;;146.50;77.47;;;;;;;;;;10489611;28;20106;-81
2023/12/06 06:31:30;;;;;;;142.30;73.87;;;;;;;;;;10472340;28;20073;-81
2023/12/06 06:36:31;;;;;;;148.30;75.40;;;;;;;;;;10489049;28;20448;-81
2023/12/06 06:41:32;;;;;;;163.10;82.63;;;;;;;;;;10489262;28;20454;-81
2023/12/06 06:46:33;;;;;;;201.77;97.63;;;;;;;;;;10489436;28;20028;-80
2023/12/06 06:51:38;;;;;;;222.27;100.67;;;;;;;;;;10489300;28;20048;-81
2023/12/06 06:56:39;;;;;;;197.17;92.30;;;;;;;;;;10489480;28;20060;-83
2023/12/06 07:01:40;;;;;;;197.23;91.43;;;;;;;;;;10488608;28;20136;-83
2023/12/06 07:06:41;;;;;;;191.70;88.97;;;;;;;;;;10495138;28;20038;-82
2023/12/06 07:11:42;;;;;;;192.30;87.90;;;;;;;;;;10496390;28;20032;-83
2023/12/06 07:16:45;;;;;;;213.53;99.80;;;;;;;;;;10496429;28;20429;-82
2023/12/06 07:21:46;;;;;;;186.23;92.97;;;;;;;;;;10497716;28;20434;-81
2023/12/06 07:26:54;;;;;;;187.20;93.40;;;;;;;;;;10497155;28;20139;-81
2023/12/06 07:32:02;;;;;;;179.40;87.97;;;;;;;;;;10478739;28;20036;-81
2023/12/06 07:37:03;;;;;;;160.30;74.87;;;;;;;;;;10496523;28;20149;-81
2023/12/06 07:42:04;;;;;;;168.87;80.00;;;;;;;;;;10494952;28;20036;-82
2023/12/06 07:47:05;;;;;;;155.53;77.30;;;;;;;;;;10495796;28;20040;-80
2023/12/06 07:52:06;;;;;;;159.07;78.43;;;;;;;;;;10495768;28;20472;-81
2023/12/06 07:57:07;;;;;;;199.27;91.77;;;;;;;;;;10494984;28;20032;-81
2023/12/06 08:02:08;;;;;;;166.87;80.60;;;;;;;;;;10491967;28;20119;-81
2023/12/06 08:07:09;;;;;;;193.37;89.33;;;;;;;;;;10483555;28;20697;-81
2023/12/06 08:12:10;;;;;;;230.43;101.10;;;;;;;;;;10494662;28;21190;-81
2023/12/06 08:17:12;;;;;;;164.53;78.83;;;;;;;;;;10494764;28;20020;-81
2023/12/06 08:22:13;;;;;;;137.33;67.50;;;;;;;;;;10495185;28;20503;-81
2023/12/06 08:27:14;;;;;;;124.23;60.90;;;;;;;;;;10494496;28;20110;-81
2023/12/06 08:32:15;;;;;;;141.90;63.30;;;;;;;;;;10471297;28;20548;-81
2023/12/06 08:37:16;;;;;;;144.60;69.97;;;;;;;;;;10475995;28;20052;-80
2023/12/06 08:42:17;;;;;;;146.33;71.20;;;;;;;;;;10481214;28;20037;-82
2023/12/06 08:47:18;;;;;;;161.30;76.20;;;;;;;;;;10492758;28;20851;-81
2023/12/06 08:52:23;;;;;;;149.40;69.90;;;;;;;;;;10461882;28;20123;-81
2023/12/06 08:57:24;;;;;;;150.13;71.13;;;;;;;;;;10457086;28;20642;-80
2023/12/06 09:02:25;;;;;;;160.87;70.83;;;;;;;;;;10488277;28;20040;-80
2023/12/06 09:07:26;;;;;;;274.07;109.77;;;;;;;;;;10472467;28;20033;-80
2023/12/06 09:12:27;;;;;;;168.27;76.43;;;;;;;;;;10487771;28;20029;-80
2023/12/06 09:17:28;;;;;;;207.43;98.50;;;;;;;;;;10445521;28;20115;-79
2023/12/06 09:22:29;;;;;;;194.93;84.87;;;;;;;;;;10443359;28;20060;-78
2023/12/06 09:27:30;;;;;;;245.43;108.33;;;;;;;;;;10446085;28;20059;-79
2023/12/06 09:32:32;;;;;;;152.43;71.30;;;;;;;;;;10451567;28;20025;-80
2023/12/06 09:37:33;;;;;;;161.90;78.70;;;;;;;;;;10460680;28;20525;-78
2023/12/06 09:42:34;;;;;;;156.23;78.60;;;;;;;;;;10435552;28;20121;-78
2023/12/06 09:47:36;;;;;;;148.23;69.40;;;;;;;;;;10462359;28;20036;-79
2023/12/06 09:52:37;;;;;;;177.47;86.50;;;;;;;;;;10465908;28;20052;-79
2023/12/06 09:57:38;;;;;;;196.10;85.87;;;;;;;;;;10467435;28;20112;-80
2023/12/06 10:02:48;;;;;;;194.27;89.30;;;;;;;;;;10451062;28;20037;-80
2023/12/06 10:07:50;;;;;;;185.80;88.43;;;;;;;;;;10449964;28;20049;-79
2023/12/06 10:12:52;;;;;;;196.83;91.07;;;;;;;;;;10438061;28;20453;-80
2023/12/06 10:17:53;;;;;;;223.87;94.17;;;;;;;;;;10469883;28;20115;-78
2023/12/06 10:22:55;;;;;;;172.40;81.30;;;;;;;;;;10455517;28;20053;-79
2023/12/06 10:28:01;;;;;;;135.57;68.60;;;;;;;;;;10463191;28;20053;-79
2023/12/06 10:33:02;;;;;;;146.63;73.13;;;;;;;;;;10435022;28;20025;-78
2023/12/06 10:38:04;;;;;;;130.97;66.10;;;;;;;;;;10439029;28;20021;-79
2023/12/06 10:43:12;;;;;;;129.83;64.67;;;;;;;;;;10440530;28;20124;-78
2023/12/06 10:48:15;;;;;;;128.67;61.97;;;;;;;;;;10442563;28;20134;-80
2023/12/06 10:53:17;;;;;;;128.60;64.43;;;;;;;;;;10444221;28;20052;-79
2023/12/06 10:58:19;;;;;;;121.10;58.87;;;;;;;;;;10447508;28;20498;-79
2023/12/06 11:03:20;;;;;;;131.70;63.93;;;;;;;;;;10445557;28;20764;-79
2023/12/06 11:08:40;;;;;;;124.30;64.43;;;;;;;;;;10433678;28;20469;-79
2023/12/06 11:13:50;;;;;;;127.40;62.10;;;;;;;;;;10426987;28;20029;-80
2023/12/06 11:18:52;;;;;;;122.60;59.03;;;;;;;;;;10438735;28;20033;-79
2023/12/06 11:23:54;;;;;;;120.47;59.60;;;;;;;;;;10443398;28;20091;-79
2023/12/06 11:28:56;;;;;;;130.00;62.90;;;;;;;;;;10446784;28;20497;-79
2023/12/06 11:33:58;;;;;;;129.00;61.30;;;;;;;;;;10447539;28;20116;-79
2023/12/06 11:38:59;;;;;;;130.27;59.90;;;;;;;;;;10433936;28;20033;-81
2023/12/06 11:44:00;;;;;;;135.73;62.33;;;;;;;;;;10444343;28;20033;-79
2023/12/06 11:49:02;;;;;;;134.73;62.20;;;;;;;;;;10442438;28;20114;-80
2023/12/06 11:54:04;;;;;;;135.23;64.93;;;;;;;;;;10452419;28;20033;-78
2023/12/06 11:59:05;;;;;;;137.30;66.07;;;;;;;;;;10444287;28;20120;-80
2023/12/06 12:04:07;;;;;;;137.73;69.10;;;;;;;;;;10450631;28;20156;-79
2023/12/06 12:09:08;;;;;;;118.40;59.10;;;;;;;;;;10436312;28;20032;-79
2023/12/06 12:14:09;;;;;;;124.70;61.93;;;;;;;;;;10452699;28;20057;-81
2023/12/06 12:19:11;;;;;;;119.83;58.17;;;;;;;;;;10433853;28;20187;-80
2023/12/06 12:24:12;;;;;;;115.73;60.90;;;;;;;;;;10450670;28;20452;-81
2023/12/06 12:29:17;;;;;;;156.93;81.73;;;;;;;;;;10442234;28;20164;-79
2023/12/06 12:34:18;;;;;;;125.80;62.20;;;;;;;;;;10445321;28;20473;-79
2023/12/06 12:39:19;;;;;;;121.60;66.57;;;;;;;;;;10437926;28;21045;-81
2023/12/06 12:44:20;;;;;;;119.23;61.17;;;;;;;;;;10450846;28;20603;-80
2023/12/06 12:49:22;;;;;;;123.10;62.50;;;;;;;;;;10447009;28;20037;-81
2023/12/06 12:54:23;;;;;;;118.47;57.73;;;;;;;;;;10451866;28;20032;-79
2023/12/06 12:59:24;;;;;;;164.13;92.93;;;;;;;;;;10430157;28;20043;-81
2023/12/06 13:04:32;;;;;;;259.83;173.17;;;;;;;;;;10412582;28;20489;-80
2023/12/06 13:09:34;;;;;;;131.00;74.57;;;;;;;;;;10444964;28;20033;-78
2023/12/06 13:14:35;;;;;;;104.37;53.10;;;;;;;;;;10445835;28;20084;-80
2023/12/06 13:19:36;;;;;;;103.60;51.97;;;;;;;;;;10445263;28;20032;-79
2023/12/06 13:24:38;;;;;;;148.90;93.40;;;;;;;;;;10447908;28;20439;-79
2023/12/06 13:29:39;;;;;;;123.13;68.77;;;;;;;;;;10484210;28;20059;-80
2023/12/06 13:34:42;;;;;;;112.27;55.23;;;;;;;;;;10478548;28;20376;-80
2023/12/06 13:39:47;;;;;;;109.50;55.77;;;;;;;;;;10483442;28;20028;-80
2023/12/06 13:44:50;;;;;;;119.47;62.33;;;;;;;;;;10480061;28;20036;-79
2023/12/06 13:49:58;;;;;;;119.67;64.00;;;;;;;;;;10481828;28;20124;-80
2023/12/06 13:54:59;;;;;;;143.60;73.03;;;;;;;;;;10468955;28;20403;-80
2023/12/06 14:00:00;;;;;;;134.17;72.10;;;;;;;;;;10484996;28;20039;-80
2023/12/06 14:05:01;;;;;;;166.77;84.40;;;;;;;;;;10481738;28;20115;-82
2023/12/06 14:10:04;;;;;;;157.57;81.00;;;;;;;;;;10473750;28;20036;-81
2023/12/06 14:15:06;;;;;;;138.87;66.17;;;;;;;;;;10480986;28;20074;-80
2023/12/06 14:20:08;;;;;;;131.57;63.87;;;;;;;;;;10476336;28;20476;-79
2023/12/06 14:25:09;;;;;;;142.53;67.77;;;;;;;;;;10487317;28;20571;-80
2023/12/06 14:30:11;;;;;;;147.57;72.87;;;;;;;;;;10476290;28;20049;-82
2023/12/06 14:35:12;;;;;;;147.77;70.77;;;;;;;;;;10475923;28;20499;-79
2023/12/06 14:40:13;;;;;;;150.53;74.43;;;;;;;;;;10485290;28;20028;-82
2023/12/06 14:45:14;;;;;;;131.90;61.90;;;;;;;;;;10483536;28;20127;-80
2023/12/06 14:50:15;;;;;;;116.33;57.33;;;;;;;;;;10477810;28;20056;-81
2023/12/06 14:55:16;;;;;;;119.27;58.00;;;;;;;;;;10489379;28;20149;-82
2023/12/06 15:00:18;;;;;;;108.20;53.67;;;;;;;;;;10479298;28;20112;-79
2023/12/06 15:05:20;;;;;;;97.63;46.80;;;;;;;;;;10474141;28;20522;-80
2023/12/06 15:10:21;;;;;;;96.90;45.23;;;;;;;;;;10477711;28;20026;-80
2023/12/06 15:15:22;;;;;;;97.50;43.20;;;;;;;;;;10477676;28;20376;-81
2023/12/06 15:20:23;;;;;;;102.20;45.73;;;;;;;;;;10489840;28;20036;-79
2023/12/06 15:25:24;;;;;;;98.50;48.30;;;;;;;;;;10488846;28;20029;-81
2023/12/06 15:30:25;;;;;;;102.33;47.10;;;;;;;;;;10500676;28;20062;-81
2023/12/06 15:35:26;;;;;;;111.93;49.90;;;;;;;;;;10490774;28;20055;-81
2023/12/06 15:40:29;;;;;;;108.73;47.57;;;;;;;;;;10477949;28;20123;-81
2023/12/06 15:45:30;;;;;;;106.17;48.73;;;;;;;;;;10494390;28;20123;-80
2023/12/06 15:50:33;;;;;;;105.10;50.03;;;;;;;;;;10521674;28;20038;-81
2023/12/06 15:55:35;;;;;;;104.83;49.27;;;;;;;;;;10494158;28;20039;-81
2023/12/06 16:00:36;;;;;;;106.73;48.30;;;;;;;;;;10476710;28;20147;-81
2023/12/06 16:05:37;;;;;;;101.57;49.80;;;;;;;;;;10484174;28;20036;-81
2023/12/06 16:10:38;;;;;;;107.20;47.73;;;;;;;;;;10489331;28;20119;-81
2023/12/06 16:15:41;;;;;;;114.80;54.70;;;;;;;;;;10487355;28;20033;-80
2023/12/06 16:20:42;;;;;;;103.67;50.97;;;;;;;;;;10484214;28;20076;-82
2023/12/06 16:25:48;;;;;;;106.53;49.90;;;;;;;;;;10487923;28;20040;-81
2023/12/06 16:30:49;;;;;;;100.60;48.88;;;;;;;;;;10454666;28;20057;-81
2023/12/06 16:35:57;;;;;;;99.67;47.97;;;;;;;;;;10451419;28;20113;-81
2023/12/06 16:40:58;;;;;;;101.87;49.57;;;;;;;;;;10443270;28;20041;-81
2023/12/06 16:45:59;;;;;;;114.90;53.77;;;;;;;;;;10438942;28;20029;-81
2023/12/06 16:51:01;;;;;;;113.10;53.00;;;;;;;;;;10421019;28;20040;-82
2023/12/06 16:56:03;;;;;;;108.17;51.70;;;;;;;;;;10435377;28;20167;-81
2023/12/06 17:01:04;;;;;;;97.33;44.90;;;;;;;;;;10448725;28;20064;-81
2023/12/06 17:06:05;;;;;;;104.27;48.17;;;;;;;;;;10451231;28;20040;-81
2023/12/06 17:11:06;;;;;;;88.90;43.77;;;;;;;;;;10438511;28;20025;-81
2023/12/06 17:16:07;;;;;;;97.87;46.23;;;;;;;;;;10439690;28;20091;-81
2023/12/06 17:21:08;;;;;;;108.07;53.10;;;;;;;;;;10443370;28;20477;-81
2023/12/06 17:26:09;;;;;;;104.20;50.37;;;;;;;;;;10425404;28;20135;-81
2023/12/06 17:31:11;;;;;;;96.50;45.67;;;;;;;;;;10443189;28;20466;-81
2023/12/06 17:36:12;;;;;;;97.97;47.27;;;;;;;;;;10448502;28;20483;-81
2023/12/06 17:41:13;;;;;;;109.50;51.33;;;;;;;;;;10442661;28;20064;-81
2023/12/06 17:46:14;;;;;;;98.73;45.80;;;;;;;;;;10437751;28;20036;-82
2023/12/06 17:51:15;;;;;;;103.73;50.57;;;;;;;;;;10431943;28;20029;-82
2023/12/06 17:56:16;;;;;;;187.80;75.03;;;;;;;;;;10445911;28;20416;-83
2023/12/06 18:01:19;;;;;;;136.93;58.20;;;;;;;;;;10432069;28;20037;-82
2023/12/06 18:06:20;;;;;;;163.07;65.40;;;;;;;;;;10440334;28;20493;-81
2023/12/06 18:11:21;;;;;;;187.67;71.00;;;;;;;;;;10435279;28;20647;-81
2023/12/06 18:16:22;;;;;;;129.13;54.23;;;;;;;;;;10444863;28;20515;-81
2023/12/06 18:21:23;;;;;;;115.73;52.90;;;;;;;;;;10427334;28;20049;-82
2023/12/06 18:26:24;;;;;;;133.33;57.70;;;;;;;;;;10438689;28;20203;-82
2023/12/06 18:31:25;;;;;;;130.30;58.77;;;;;;;;;;10487270;28;20091;-82
2023/12/06 18:36:26;;;;;;;123.93;56.30;;;;;;;;;;10489214;28;20033;-82
2023/12/06 18:41:28;;;;;;;131.37;58.80;;;;;;;;;;10484277;28;20042;-82
2023/12/06 18:46:29;;;;;;;144.73;63.73;;;;;;;;;;10486066;28;20035;-83
2023/12/06 18:51:30;;;;;;;134.60;60.47;;;;;;;;;;10508646;28;20035;-83
2023/12/06 18:56:32;;;;;;;138.63;63.97;;;;;;;;;;10485040;28;20107;-83
2023/12/06 19:01:39;;;;;;;127.77;59.07;;;;;;;;;;10502809;28;20044;-82
2023/12/06 19:06:40;;;;;;;145.23;64.80;;;;;;;;;;10484813;28;20115;-83
2023/12/06 19:11:41;;;;;;;134.20;59.07;;;;;;;;;;10493460;28;20528;-82
2023/12/06 19:16:42;;;;;;;135.97;61.43;;;;;;;;;;10496437;28;20035;-83
2023/12/06 19:21:43;;;;;;;133.93;58.00;;;;;;;;;;10484131;28;20040;-83
2023/12/06 19:26:45;;;;;;;142.60;63.63;;;;;;;;;;10506206;28;20148;-83
2023/12/06 19:31:46;;;;;;;147.10;62.63;;;;;;;;;;10507875;28;20185;-83
2023/12/06 19:36:47;;;;;;;138.07;64.13;;;;;;;;;;10489867;28;20037;-83
2023/12/06 19:41:48;;;;;;;138.07;62.53;;;;;;;;;;10477702;28;20058;-82
2023/12/06 19:46:55;;;;;;;146.73;64.10;;;;;;;;;;10502978;28;20067;-83
2023/12/06 19:51:56;;;;;;;145.30;63.20;;;;;;;;;;10491961;28;20432;-83
2023/12/06 19:56:57;;;;;;;145.53;60.17;;;;;;;;;;10477958;28;20041;-82
2023/12/06 20:01:59;;;;;;;141.10;60.80;;;;;;;;;;10473258;28;20131;-83
2023/12/06 20:07:00;;;;;;;134.20;57.87;;;;;;;;;;10509283;28;20453;-83
2023/12/06 20:12:01;;;;;;;128.87;54.53;;;;;;;;;;10497355;28;20475;-84
2023/12/06 20:17:03;;;;;;;123.83;53.63;;;;;;;;;;10493725;28;20055;-82
2023/12/06 20:22:04;;;;;;;154.90;66.60;;;;;;;;;;10495754;28;20190;-82
2023/12/06 20:27:05;;;;;;;153.37;64.83;;;;;;;;;;10483507;28;20063;-82
2023/12/06 20:32:07;;;;;;;144.07;60.70;;;;;;;;;;10440013;28;20087;-83
2023/12/06 20:37:08;;;;;;;157.23;64.37;;;;;;;;;;10445114;28;20079;-81
2023/12/06 20:42:09;;;;;;;137.07;57.37;;;;;;;;;;10441359;28;20048;-83
2023/12/06 20:47:12;;;;;;;156.43;64.10;;;;;;;;;;10449740;28;20438;-83
2023/12/06 20:52:13;;;;;;;143.80;63.57;;;;;;;;;;10447997;28;20065;-82
2023/12/06 20:57:15;;;;;;;144.67;62.33;;;;;;;;;;10422084;28;20500;-83
2023/12/06 21:02:16;;;;;;;157.40;63.97;;;;;;;;;;10450254;28;20077;-83
2023/12/06 21:07:17;;;;;;;140.70;62.43;;;;;;;;;;10452394;28;20035;-82
2023/12/06 21:12:18;;;;;;;143.70;61.93;;;;;;;;;;10443397;28;20489;-83
2023/12/06 21:17:20;;;;;;;132.67;56.73;;;;;;;;;;10438566;28;20464;-83
2023/12/06 21:22:21;;;;;;;128.37;56.43;;;;;;;;;;10432668;28;20488;-81
2023/12/06 21:27:22;;;;;;;136.70;56.63;;;;;;;;;;10441714;28;20045;-82
2023/12/06 21:32:23;;;;;;;141.50;57.63;;;;;;;;;;10444005;28;20357;-82
2023/12/06 21:37:24;;;;;;;117.07;54.30;;;;;;;;;;10434018;28;20112;-82
2023/12/06 21:42:25;;;;;;;132.73;56.00;;;;;;;;;;10447324;28;20056;-81
2023/12/06 21:47:26;;;;;;;123.57;54.70;;;;;;;;;;10420435;28;20033;-82
2023/12/06 21:52:28;;;;;;;103.97;43.50;;;;;;;;;;10443187;28;20033;-83
2023/12/06 21:57:29;;;;;;;124.83;52.43;;;;;;;;;;10445752;28;20036;-82
2023/12/06 22:02:30;;;;;;;114.00;46.40;;;;;;;;;;10441414;28;20072;-82
2023/12/06 22:07:31;;;;;;;117.87;46.43;;;;;;;;;;10435124;28;20171;-83
2023/12/06 22:12:39;;;;;;;129.03;52.00;;;;;;;;;;10424953;28;20107;-82
2023/12/06 22:17:40;;;;;;;105.10;41.27;;;;;;;;;;10416745;28;20037;-83
2023/12/06 22:22:41;;;;;;;121.47;48.83;;;;;;;;;;10437197;28;20056;-82
2023/12/06 22:27:42;;;;;;;104.70;43.97;;;;;;;;;;10432684;28;20084;-82
2023/12/06 22:32:43;;;;;;;118.57;48.23;;;;;;;;;;10447293;28;20025;-81
2023/12/06 22:37:51;;;;;;;101.60;43.53;;;;;;;;;;10446812;28;20469;-82
2023/12/06 22:42:52;;;;;;;106.57;44.90;;;;;;;;;;10424166;28;20504;-82
2023/12/06 22:47:54;;;;;;;107.73;43.87;;;;;;;;;;10440855;28;20384;-83
2023/12/06 22:53:02;;;;;;;99.37;38.60;;;;;;;;;;10441147;28;20425;-82
2023/12/06 22:58:03;;;;;;;103.73;41.30;;;;;;;;;;10442625;28;20029;-82
2023/12/06 23:03:04;;;;;;;91.70;37.67;;;;;;;;;;10446222;28;20079;-84
2023/12/06 23:08:05;;;;;;;86.47;33.17;;;;;;;;;;10448067;28;20473;-82
2023/12/06 23:13:06;;;;;;;85.43;35.87;;;;;;;;;;10445654;28;20033;-82
2023/12/06 23:18:07;;;;;;;92.90;36.13;;;;;;;;;;10416629;28;20389;-82
2023/12/06 23:23:08;;;;;;;95.47;35.67;;;;;;;;;;10410276;28;20145;-82
2023/12/06 23:28:09;;;;;;;97.53;38.63;;;;;;;;;;10430042;28;20492;-82
2023/12/06 23:33:11;;;;;;;99.43;37.10;;;;;;;;;;10438767;28;20021;-82
2023/12/06 23:38:12;;;;;;;102.77;39.37;;;;;;;;;;10445400;28;20461;-82
2023/12/06 23:43:20;;;;;;;106.90;41.57;;;;;;;;;;10434111;28;20148;-83
2023/12/06 23:48:21;;;;;;;97.23;38.23;;;;;;;;;;10441531;28;20026;-83
2023/12/06 23:53:22;;;;;;;103.80;36.57;;;;;;;;;;10433991;28;20029;-82
2023/12/06 23:58:23;;;;;;;109.43;40.37;;;;;;;;;;10447282;28;20025;-83
